logo
Search for airport 
image banner adimage banner adimage banner ad
image banner ad

HUMY - Moyo

Located in Moyo, Uganda

ICAO - , IATA - OYG

Data provided by Airmate  

General information

Coordinates: N3°38'0" E31°45'0"
Elevation is 3037 feet MSL.
 
View others Airports in Moyo District

Operational data

Special qualification required
Current time UTC:
Current local time:
Weather at : - ( 0 km )
METAR: CYQX 152158Z 01006KT 20SM -RA BKN009 OVC070 19/17 A2984 RMK SC6AC2 SLP108 DENSITY ALT 1200FT
View NOTAMs / SUP AIP / TFR affecting this airport [VIEW]
Communications frequencies: [VIEW]

Runways:

RWY identifierQFULength (ft)Width (ft)SurfaceLDA (ft)
1800UNK
3600UNK

Airport contact information

Address: Moyo Uganda

Satellite view of HUMY